sensor_id;sensor_type;location;lat;lon;timestamp;P1;durP1;ratioP1;P2;durP2;ratioP2
4353;SDS011;11018;51.258;6.806;2023-12-07T00:02:12;56.90;;;39.10;;
4353;SDS011;11018;51.258;6.806;2023-12-07T00:04:38;57.05;;;40.35;;
4353;SDS011;11018;51.258;6.806;2023-12-07T00:07:03;61.20;;;41.13;;
4353;SDS011;11018;51.258;6.806;2023-12-07T00:09:29;63.60;;;40.80;;
4353;SDS011;11018;51.258;6.806;2023-12-07T00:11:54;57.87;;;40.90;;
4353;SDS011;11018;51.258;6.806;2023-12-07T00:14:20;55.75;;;38.60;;
4353;SDS011;11018;51.258;6.806;2023-12-07T00:16:46;58.40;;;40.15;;
4353;SDS011;11018;51.258;6.806;2023-12-07T00:19:12;54.70;;;38.60;;
4353;SDS011;11018;51.258;6.806;2023-12-07T00:21:37;52.80;;;37.60;;
4353;SDS011;11018;51.258;6.806;2023-12-07T00:24:03;54.47;;;38.67;;
4353;SDS011;11018;51.258;6.806;2023-12-07T00:26:29;59.17;;;39.33;;
4353;SDS011;11018;51.258;6.806;2023-12-07T00:28:54;53.43;;;37.10;;
4353;SDS011;11018;51.258;6.806;2023-12-07T00:31:20;57.23;;;38.50;;
4353;SDS011;11018;51.258;6.806;2023-12-07T00:33:45;53.37;;;37.73;;
4353;SDS011;11018;51.258;6.806;2023-12-07T00:36:11;56.23;;;39.50;;
4353;SDS011;11018;51.258;6.806;2023-12-07T00:38:37;60.53;;;41.75;;
4353;SDS011;11018;51.258;6.806;2023-12-07T00:41:03;61.10;;;40.83;;
4353;SDS011;11018;51.258;6.806;2023-12-07T00:43:28;58.03;;;39.55;;
4353;SDS011;11018;51.258;6.806;2023-12-07T00:45:54;53.60;;;38.95;;
4353;SDS011;11018;51.258;6.806;2023-12-07T00:48:20;59.00;;;39.93;;
4353;SDS011;11018;51.258;6.806;2023-12-07T00:50:45;54.40;;;39.70;;
4353;SDS011;11018;51.258;6.806;2023-12-07T00:53:12;55.45;;;39.35;;
4353;SDS011;11018;51.258;6.806;2023-12-07T00:55:38;57.63;;;38.97;;
4353;SDS011;11018;51.258;6.806;2023-12-07T00:58:05;51.20;;;37.42;;
4353;SDS011;11018;51.258;6.806;2023-12-07T01:00:30;51.65;;;37.58;;
4353;SDS011;11018;51.258;6.806;2023-12-07T01:02:56;53.80;;;37.00;;
4353;SDS011;11018;51.258;6.806;2023-12-07T01:05:22;50.87;;;36.80;;
4353;SDS011;11018;51.258;6.806;2023-12-07T01:07:47;52.80;;;36.60;;
4353;SDS011;11018;51.258;6.806;2023-12-07T01:10:13;56.20;;;36.60;;
4353;SDS011;11018;51.258;6.806;2023-12-07T01:12:39;54.17;;;36.88;;
4353;SDS011;11018;51.258;6.806;2023-12-07T01:15:04;49.00;;;35.90;;
4353;SDS011;11018;51.258;6.806;2023-12-07T01:17:30;47.50;;;35.65;;
4353;SDS011;11018;51.258;6.806;2023-12-07T01:19:56;48.13;;;35.67;;
4353;SDS011;11018;51.258;6.806;2023-12-07T01:22:21;50.23;;;36.20;;
4353;SDS011;11018;51.258;6.806;2023-12-07T01:24:47;48.50;;;35.30;;
4353;SDS011;11018;51.258;6.806;2023-12-07T01:27:13;47.55;;;35.00;;
4353;SDS011;11018;51.258;6.806;2023-12-07T01:29:38;53.25;;;36.67;;
4353;SDS011;11018;51.258;6.806;2023-12-07T01:32:04;50.15;;;35.97;;
4353;SDS011;11018;51.258;6.806;2023-12-07T01:34:30;51.65;;;36.47;;
4353;SDS011;11018;51.258;6.806;2023-12-07T01:36:57;47.97;;;35.85;;
4353;SDS011;11018;51.258;6.806;2023-12-07T01:39:23;57.33;;;37.40;;
4353;SDS011;11018;51.258;6.806;2023-12-07T01:41:49;54.17;;;37.58;;
4353;SDS011;11018;51.258;6.806;2023-12-07T01:44:16;52.78;;;36.08;;
4353;SDS011;11018;51.258;6.806;2023-12-07T01:46:41;51.30;;;35.53;;
4353;SDS011;11018;51.258;6.806;2023-12-07T01:49:07;51.80;;;35.00;;
4353;SDS011;11018;51.258;6.806;2023-12-07T01:51:34;54.95;;;37.65;;
4353;SDS011;11018;51.258;6.806;2023-12-07T01:54:00;53.08;;;36.13;;
4353;SDS011;11018;51.258;6.806;2023-12-07T01:56:26;55.38;;;37.78;;
4353;SDS011;11018;51.258;6.806;2023-12-07T01:58:52;57.30;;;37.78;;
4353;SDS011;11018;51.258;6.806;2023-12-07T02:01:18;51.38;;;36.80;;
4353;SDS011;11018;51.258;6.806;2023-12-07T02:03:44;53.43;;;37.63;;
4353;SDS011;11018;51.258;6.806;2023-12-07T02:06:12;59.63;;;39.60;;
4353;SDS011;11018;51.258;6.806;2023-12-07T02:08:38;57.60;;;40.30;;
4353;SDS011;11018;51.258;6.806;2023-12-07T02:11:07;56.72;;;38.25;;
4353;SDS011;11018;51.258;6.806;2023-12-07T02:13:36;53.92;;;38.50;;
4353;SDS011;11018;51.258;6.806;2023-12-07T02:16:04;57.47;;;38.15;;
4353;SDS011;11018;51.258;6.806;2023-12-07T02:18:46;54.75;;;38.00;;
4353;SDS011;11018;51.258;6.806;2023-12-07T02:24:10;49.97;;;35.08;;
4353;SDS011;11018;51.258;6.806;2023-12-07T02:26:42;48.92;;;34.63;;
4353;SDS011;11018;51.258;6.806;2023-12-07T02:29:07;51.50;;;35.37;;
4353;SDS011;11018;51.258;6.806;2023-12-07T02:31:33;49.83;;;34.90;;
4353;SDS011;11018;51.258;6.806;2023-12-07T02:33:59;49.77;;;34.57;;
4353;SDS011;11018;51.258;6.806;2023-12-07T02:36:24;48.05;;;34.78;;
4353;SDS011;11018;51.258;6.806;2023-12-07T02:38:54;46.95;;;33.35;;
4353;SDS011;11018;51.258;6.806;2023-12-07T02:41:22;50.25;;;35.00;;
4353;SDS011;11018;51.258;6.806;2023-12-07T02:43:48;49.10;;;35.70;;
4353;SDS011;11018;51.258;6.806;2023-12-07T02:46:14;50.15;;;35.17;;
4353;SDS011;11018;51.258;6.806;2023-12-07T02:48:40;49.47;;;34.50;;
4353;SDS011;11018;51.258;6.806;2023-12-07T02:51:05;47.65;;;34.17;;
4353;SDS011;11018;51.258;6.806;2023-12-07T02:53:31;49.95;;;33.75;;
4353;SDS011;11018;51.258;6.806;2023-12-07T02:55:57;44.80;;;33.15;;
4353;SDS011;11018;51.258;6.806;2023-12-07T02:58:23;49.33;;;33.77;;
4353;SDS011;11018;51.258;6.806;2023-12-07T03:00:48;46.93;;;33.63;;
4353;SDS011;11018;51.258;6.806;2023-12-07T03:03:14;45.53;;;33.10;;
4353;SDS011;11018;51.258;6.806;2023-12-07T03:05:40;50.08;;;34.22;;
4353;SDS011;11018;51.258;6.806;2023-12-07T03:08:05;50.13;;;36.03;;
4353;SDS011;11018;51.258;6.806;2023-12-07T03:10:31;49.60;;;35.78;;
4353;SDS011;11018;51.258;6.806;2023-12-07T03:12:56;49.92;;;34.88;;
4353;SDS011;11018;51.258;6.806;2023-12-07T03:15:22;46.47;;;34.10;;
4353;SDS011;11018;51.258;6.806;2023-12-07T03:17:48;49.27;;;34.70;;
4353;SDS011;11018;51.258;6.806;2023-12-07T03:20:15;48.08;;;33.95;;
4353;SDS011;11018;51.258;6.806;2023-12-07T03:22:40;50.17;;;34.00;;
4353;SDS011;11018;51.258;6.806;2023-12-07T03:25:06;49.45;;;34.20;;
4353;SDS011;11018;51.258;6.806;2023-12-07T03:27:32;49.13;;;35.05;;
4353;SDS011;11018;51.258;6.806;2023-12-07T03:29:57;51.53;;;34.80;;
4353;SDS011;11018;51.258;6.806;2023-12-07T03:32:23;50.33;;;35.23;;
4353;SDS011;11018;51.258;6.806;2023-12-07T03:34:48;49.10;;;34.83;;
4353;SDS011;11018;51.258;6.806;2023-12-07T03:37:14;49.30;;;35.03;;
4353;SDS011;11018;51.258;6.806;2023-12-07T03:39:39;52.70;;;34.83;;
4353;SDS011;11018;51.258;6.806;2023-12-07T03:42:05;51.00;;;35.80;;
4353;SDS011;11018;51.258;6.806;2023-12-07T03:44:30;49.08;;;35.33;;
4353;SDS011;11018;51.258;6.806;2023-12-07T03:46:56;49.97;;;34.80;;
4353;SDS011;11018;51.258;6.806;2023-12-07T03:49:22;54.00;;;36.08;;
4353;SDS011;11018;51.258;6.806;2023-12-07T03:51:47;52.70;;;35.33;;
4353;SDS011;11018;51.258;6.806;2023-12-07T03:54:13;50.20;;;34.15;;
4353;SDS011;11018;51.258;6.806;2023-12-07T03:56:38;51.03;;;33.93;;
4353;SDS011;11018;51.258;6.806;2023-12-07T03:59:05;52.20;;;35.65;;
4353;SDS011;11018;51.258;6.806;2023-12-07T04:01:31;54.35;;;35.60;;
4353;SDS011;11018;51.258;6.806;2023-12-07T04:03:57;51.33;;;35.33;;
4353;SDS011;11018;51.258;6.806;2023-12-07T04:06:23;56.57;;;35.20;;
4353;SDS011;11018;51.258;6.806;2023-12-07T04:08:48;52.72;;;35.40;;
4353;SDS011;11018;51.258;6.806;2023-12-07T04:11:14;54.90;;;36.63;;
4353;SDS011;11018;51.258;6.806;2023-12-07T04:13:40;56.07;;;36.53;;
4353;SDS011;11018;51.258;6.806;2023-12-07T04:16:07;53.17;;;35.72;;
4353;SDS011;11018;51.258;6.806;2023-12-07T04:18:33;53.83;;;36.33;;
4353;SDS011;11018;51.258;6.806;2023-12-07T04:20:59;54.35;;;36.17;;
4353;SDS011;11018;51.258;6.806;2023-12-07T04:23:24;51.90;;;35.03;;
4353;SDS011;11018;51.258;6.806;2023-12-07T04:25:50;54.08;;;36.10;;
4353;SDS011;11018;51.258;6.806;2023-12-07T04:28:16;50.73;;;35.87;;
4353;SDS011;11018;51.258;6.806;2023-12-07T04:30:42;50.45;;;34.80;;
4353;SDS011;11018;51.258;6.806;2023-12-07T04:33:07;50.75;;;34.75;;
4353;SDS011;11018;51.258;6.806;2023-12-07T04:35:33;58.08;;;36.83;;
4353;SDS011;11018;51.258;6.806;2023-12-07T04:37:59;52.65;;;36.15;;
4353;SDS011;11018;51.258;6.806;2023-12-07T04:40:25;55.90;;;35.67;;
4353;SDS011;11018;51.258;6.806;2023-12-07T04:42:51;61.28;;;38.08;;
4353;SDS011;11018;51.258;6.806;2023-12-07T04:45:16;54.80;;;36.05;;
4353;SDS011;11018;51.258;6.806;2023-12-07T04:47:42;53.03;;;36.72;;
4353;SDS011;11018;51.258;6.806;2023-12-07T04:50:08;57.28;;;36.40;;
4353;SDS011;11018;51.258;6.806;2023-12-07T04:52:34;56.90;;;35.50;;
4353;SDS011;11018;51.258;6.806;2023-12-07T04:55:00;54.13;;;35.60;;
4353;SDS011;11018;51.258;6.806;2023-12-07T04:57:26;53.42;;;35.30;;
4353;SDS011;11018;51.258;6.806;2023-12-07T04:59:52;53.30;;;36.03;;
4353;SDS011;11018;51.258;6.806;2023-12-07T05:02:17;53.43;;;36.50;;
4353;SDS011;11018;51.258;6.806;2023-12-07T05:04:43;50.63;;;35.17;;
4353;SDS011;11018;51.258;6.806;2023-12-07T05:07:11;52.90;;;36.80;;
4353;SDS011;11018;51.258;6.806;2023-12-07T05:09:37;57.30;;;36.45;;
4353;SDS011;11018;51.258;6.806;2023-12-07T05:12:03;51.28;;;36.00;;
4353;SDS011;11018;51.258;6.806;2023-12-07T05:14:30;57.05;;;36.50;;
4353;SDS011;11018;51.258;6.806;2023-12-07T05:16:56;52.15;;;35.15;;
4353;SDS011;11018;51.258;6.806;2023-12-07T05:19:25;52.60;;;35.27;;
4353;SDS011;11018;51.258;6.806;2023-12-07T05:21:51;55.30;;;35.65;;
4353;SDS011;11018;51.258;6.806;2023-12-07T05:24:16;51.10;;;34.78;;
4353;SDS011;11018;51.258;6.806;2023-12-07T05:26:43;50.90;;;34.72;;
4353;SDS011;11018;51.258;6.806;2023-12-07T05:29:10;53.10;;;34.72;;
4353;SDS011;11018;51.258;6.806;2023-12-07T05:31:37;47.60;;;33.25;;
4353;SDS011;11018;51.258;6.806;2023-12-07T05:34:02;52.45;;;34.63;;
4353;SDS011;11018;51.258;6.806;2023-12-07T05:36:28;58.30;;;35.25;;
4353;SDS011;11018;51.258;6.806;2023-12-07T05:38:54;51.47;;;33.33;;
4353;SDS011;11018;51.258;6.806;2023-12-07T05:41:20;54.70;;;33.77;;
4353;SDS011;11018;51.258;6.806;2023-12-07T05:43:45;51.97;;;33.80;;
4353;SDS011;11018;51.258;6.806;2023-12-07T05:46:11;55.17;;;34.13;;
4353;SDS011;11018;51.258;6.806;2023-12-07T05:48:36;53.22;;;33.80;;
4353;SDS011;11018;51.258;6.806;2023-12-07T05:51:02;50.00;;;31.92;;
4353;SDS011;11018;51.258;6.806;2023-12-07T05:53:28;48.37;;;31.97;;
4353;SDS011;11018;51.258;6.806;2023-12-07T05:55:54;49.80;;;32.37;;
4353;SDS011;11018;51.258;6.806;2023-12-07T05:58:20;50.00;;;33.45;;
4353;SDS011;11018;51.258;6.806;2023-12-07T06:00:45;53.55;;;34.03;;
4353;SDS011;11018;51.258;6.806;2023-12-07T06:03:12;49.45;;;33.38;;
4353;SDS011;11018;51.258;6.806;2023-12-07T06:05:38;50.73;;;34.07;;
4353;SDS011;11018;51.258;6.806;2023-12-07T06:08:04;52.90;;;34.85;;
4353;SDS011;11018;51.258;6.806;2023-12-07T06:10:30;49.78;;;33.95;;
4353;SDS011;11018;51.258;6.806;2023-12-07T06:12:56;53.50;;;33.80;;
4353;SDS011;11018;51.258;6.806;2023-12-07T06:15:23;49.20;;;33.22;;
4353;SDS011;11018;51.258;6.806;2023-12-07T06:17:49;49.97;;;33.17;;
4353;SDS011;11018;51.258;6.806;2023-12-07T06:20:14;49.30;;;31.93;;
4353;SDS011;11018;51.258;6.806;2023-12-07T06:22:40;53.97;;;34.60;;
4353;SDS011;11018;51.258;6.806;2023-12-07T06:25:06;47.60;;;32.30;;
4353;SDS011;11018;51.258;6.806;2023-12-07T06:27:33;50.65;;;33.50;;
4353;SDS011;11018;51.258;6.806;2023-12-07T06:30:02;47.55;;;33.13;;
4353;SDS011;11018;51.258;6.806;2023-12-07T06:32:30;48.53;;;33.83;;
4353;SDS011;11018;51.258;6.806;2023-12-07T06:34:56;48.55;;;33.42;;
4353;SDS011;11018;51.258;6.806;2023-12-07T06:37:22;55.63;;;34.60;;
4353;SDS011;11018;51.258;6.806;2023-12-07T06:39:47;50.90;;;34.60;;
4353;SDS011;11018;51.258;6.806;2023-12-07T06:42:14;52.30;;;34.78;;
4353;SDS011;11018;51.258;6.806;2023-12-07T06:44:39;54.60;;;36.22;;
4353;SDS011;11018;51.258;6.806;2023-12-07T06:47:05;52.00;;;35.47;;
4353;SDS011;11018;51.258;6.806;2023-12-07T06:49:30;54.27;;;34.90;;
4353;SDS011;11018;51.258;6.806;2023-12-07T06:51:56;48.80;;;33.70;;
4353;SDS011;11018;51.258;6.806;2023-12-07T06:54:22;53.03;;;33.60;;
4353;SDS011;11018;51.258;6.806;2023-12-07T06:56:47;51.33;;;33.80;;
4353;SDS011;11018;51.258;6.806;2023-12-07T06:59:13;50.63;;;34.00;;
4353;SDS011;11018;51.258;6.806;2023-12-07T07:01:39;53.50;;;33.85;;
4353;SDS011;11018;51.258;6.806;2023-12-07T07:04:05;54.35;;;33.50;;
4353;SDS011;11018;51.258;6.806;2023-12-07T07:06:30;50.83;;;33.22;;
4353;SDS011;11018;51.258;6.806;2023-12-07T07:08:56;49.53;;;31.80;;
4353;SDS011;11018;51.258;6.806;2023-12-07T07:11:21;46.83;;;32.07;;
4353;SDS011;11018;51.258;6.806;2023-12-07T07:13:47;45.70;;;31.07;;
4353;SDS011;11018;51.258;6.806;2023-12-07T07:16:12;41.47;;;30.10;;
4353;SDS011;11018;51.258;6.806;2023-12-07T07:18:38;48.53;;;31.97;;
4353;SDS011;11018;51.258;6.806;2023-12-07T07:21:04;46.92;;;32.30;;
4353;SDS011;11018;51.258;6.806;2023-12-07T07:23:30;45.00;;;30.83;;
4353;SDS011;11018;51.258;6.806;2023-12-07T07:25:56;44.45;;;30.38;;
4353;SDS011;11018;51.258;6.806;2023-12-07T07:28:21;44.35;;;29.35;;
4353;SDS011;11018;51.258;6.806;2023-12-07T07:30:47;44.43;;;29.63;;
4353;SDS011;11018;51.258;6.806;2023-12-07T07:33:12;47.73;;;30.03;;
4353;SDS011;11018;51.258;6.806;2023-12-07T07:35:38;43.50;;;29.40;;
4353;SDS011;11018;51.258;6.806;2023-12-07T07:38:04;44.63;;;28.77;;
4353;SDS011;11018;51.258;6.806;2023-12-07T07:40:29;48.97;;;30.40;;
4353;SDS011;11018;51.258;6.806;2023-12-07T07:42:55;43.27;;;29.93;;
4353;SDS011;11018;51.258;6.806;2023-12-07T07:45:20;42.53;;;29.00;;
4353;SDS011;11018;51.258;6.806;2023-12-07T07:47:46;44.20;;;30.40;;
4353;SDS011;11018;51.258;6.806;2023-12-07T07:50:11;40.20;;;29.17;;
4353;SDS011;11018;51.258;6.806;2023-12-07T07:52:37;40.05;;;29.10;;
4353;SDS011;11018;51.258;6.806;2023-12-07T07:55:03;41.50;;;28.27;;
4353;SDS011;11018;51.258;6.806;2023-12-07T07:57:29;42.67;;;28.42;;
4353;SDS011;11018;51.258;6.806;2023-12-07T07:59:56;39.17;;;26.95;;
4353;SDS011;11018;51.258;6.806;2023-12-07T08:02:24;42.65;;;27.00;;
4353;SDS011;11018;51.258;6.806;2023-12-07T08:04:49;40.28;;;27.38;;
4353;SDS011;11018;51.258;6.806;2023-12-07T08:07:16;38.83;;;26.38;;
4353;SDS011;11018;51.258;6.806;2023-12-07T08:09:42;46.08;;;28.33;;
4353;SDS011;11018;51.258;6.806;2023-12-07T08:12:08;39.75;;;26.30;;
4353;SDS011;11018;51.258;6.806;2023-12-07T08:14:36;36.42;;;25.92;;
4353;SDS011;11018;51.258;6.806;2023-12-07T08:17:03;38.50;;;26.90;;
4353;SDS011;11018;51.258;6.806;2023-12-07T08:19:28;39.00;;;27.15;;
4353;SDS011;11018;51.258;6.806;2023-12-07T08:21:54;38.87;;;26.00;;
4353;SDS011;11018;51.258;6.806;2023-12-07T08:24:20;40.90;;;26.43;;
4353;SDS011;11018;51.258;6.806;2023-12-07T08:26:45;38.73;;;26.00;;
4353;SDS011;11018;51.258;6.806;2023-12-07T08:29:11;37.43;;;25.93;;
4353;SDS011;11018;51.258;6.806;2023-12-07T08:31:36;35.67;;;25.65;;
4353;SDS011;11018;51.258;6.806;2023-12-07T08:34:02;39.28;;;25.95;;
4353;SDS011;11018;51.258;6.806;2023-12-07T08:36:28;35.75;;;25.50;;
4353;SDS011;11018;51.258;6.806;2023-12-07T08:38:53;34.45;;;25.00;;
4353;SDS011;11018;51.258;6.806;2023-12-07T08:41:19;36.57;;;25.70;;
4353;SDS011;11018;51.258;6.806;2023-12-07T08:43:45;34.67;;;24.73;;
4353;SDS011;11018;51.258;6.806;2023-12-07T08:46:10;38.50;;;25.13;;
4353;SDS011;11018;51.258;6.806;2023-12-07T08:48:36;34.25;;;25.70;;
4353;SDS011;11018;51.258;6.806;2023-12-07T08:51:05;35.80;;;24.85;;
4353;SDS011;11018;51.258;6.806;2023-12-07T08:53:33;34.75;;;23.92;;
4353;SDS011;11018;51.258;6.806;2023-12-07T08:55:59;36.97;;;24.95;;
4353;SDS011;11018;51.258;6.806;2023-12-07T08:58:25;36.30;;;25.17;;
4353;SDS011;11018;51.258;6.806;2023-12-07T09:00:52;32.60;;;24.52;;
4353;SDS011;11018;51.258;6.806;2023-12-07T09:03:17;36.03;;;24.67;;
4353;SDS011;11018;51.258;6.806;2023-12-07T09:05:43;37.00;;;25.33;;
4353;SDS011;11018;51.258;6.806;2023-12-07T09:08:08;35.37;;;24.10;;
4353;SDS011;11018;51.258;6.806;2023-12-07T09:10:34;35.63;;;24.58;;
4353;SDS011;11018;51.258;6.806;2023-12-07T09:13:00;34.28;;;24.80;;
4353;SDS011;11018;51.258;6.806;2023-12-07T09:15:26;33.53;;;23.83;;
4353;SDS011;11018;51.258;6.806;2023-12-07T09:17:51;28.93;;;22.23;;
4353;SDS011;11018;51.258;6.806;2023-12-07T09:20:17;31.57;;;22.73;;
4353;SDS011;11018;51.258;6.806;2023-12-07T09:22:43;30.17;;;22.30;;
4353;SDS011;11018;51.258;6.806;2023-12-07T09:25:09;31.13;;;23.20;;
4353;SDS011;11018;51.258;6.806;2023-12-07T09:27:36;36.73;;;23.13;;
4353;SDS011;11018;51.258;6.806;2023-12-07T09:30:05;31.52;;;22.17;;
4353;SDS011;11018;51.258;6.806;2023-12-07T09:32:32;31.75;;;22.67;;
4353;SDS011;11018;51.258;6.806;2023-12-07T09:35:03;31.17;;;23.90;;
4353;SDS011;11018;51.258;6.806;2023-12-07T09:37:31;30.52;;;22.92;;
4353;SDS011;11018;51.258;6.806;2023-12-07T09:39:57;33.47;;;23.48;;
4353;SDS011;11018;51.258;6.806;2023-12-07T09:42:23;31.30;;;22.95;;
4353;SDS011;11018;51.258;6.806;2023-12-07T09:44:48;33.03;;;24.30;;
4353;SDS011;11018;51.258;6.806;2023-12-07T09:47:14;36.92;;;23.77;;
4353;SDS011;11018;51.258;6.806;2023-12-07T09:49:40;35.78;;;24.42;;
4353;SDS011;11018;51.258;6.806;2023-12-07T09:52:06;34.47;;;25.20;;
4353;SDS011;11018;51.258;6.806;2023-12-07T09:54:32;34.65;;;24.45;;
4353;SDS011;11018;51.258;6.806;2023-12-07T09:57:00;32.15;;;23.15;;
4353;SDS011;11018;51.258;6.806;2023-12-07T09:59:26;32.70;;;23.77;;
4353;SDS011;11018;51.258;6.806;2023-12-07T10:01:52;31.83;;;21.90;;
4353;SDS011;11018;51.258;6.806;2023-12-07T10:04:21;32.70;;;23.10;;
4353;SDS011;11018;51.258;6.806;2023-12-07T10:06:49;32.47;;;23.00;;
4353;SDS011;11018;51.258;6.806;2023-12-07T10:09:15;31.83;;;23.00;;
4353;SDS011;11018;51.258;6.806;2023-12-07T10:11:41;32.13;;;22.90;;
4353;SDS011;11018;51.258;6.806;2023-12-07T10:14:08;30.55;;;21.90;;
4353;SDS011;11018;51.258;6.806;2023-12-07T10:16:34;28.90;;;21.77;;
4353;SDS011;11018;51.258;6.806;2023-12-07T10:19:16;29.33;;;21.90;;
4353;SDS011;11018;51.258;6.806;2023-12-07T10:21:46;28.63;;;20.88;;
4353;SDS011;11018;51.258;6.806;2023-12-07T10:24:15;34.22;;;23.25;;
4353;SDS011;11018;51.258;6.806;2023-12-07T10:26:41;31.23;;;21.98;;
4353;SDS011;11018;51.258;6.806;2023-12-07T10:29:09;26.67;;;19.70;;
4353;SDS011;11018;51.258;6.806;2023-12-07T10:31:35;29.35;;;20.95;;
4353;SDS011;11018;51.258;6.806;2023-12-07T10:34:01;25.80;;;19.40;;
4353;SDS011;11018;51.258;6.806;2023-12-07T10:36:27;26.75;;;20.20;;
4353;SDS011;11018;51.258;6.806;2023-12-07T10:38:53;28.23;;;19.95;;
4353;SDS011;11018;51.258;6.806;2023-12-07T10:41:19;29.45;;;21.48;;
4353;SDS011;11018;51.258;6.806;2023-12-07T10:43:53;29.23;;;19.70;;
4353;SDS011;11018;51.258;6.806;2023-12-07T10:46:24;29.08;;;21.23;;
4353;SDS011;11018;51.258;6.806;2023-12-07T10:48:54;32.13;;;21.35;;
4353;SDS011;11018;51.258;6.806;2023-12-07T10:53:59;31.42;;;21.90;;
4353;SDS011;11018;51.258;6.806;2023-12-07T10:56:29;29.13;;;21.53;;
4353;SDS011;11018;51.258;6.806;2023-12-07T10:59:05;31.40;;;21.30;;
4353;SDS011;11018;51.258;6.806;2023-12-07T11:01:33;26.60;;;20.13;;
4353;SDS011;11018;51.258;6.806;2023-12-07T11:04:00;29.13;;;21.05;;
4353;SDS011;11018;51.258;6.806;2023-12-07T11:06:26;27.88;;;20.10;;
4353;SDS011;11018;51.258;6.806;2023-12-07T11:08:54;26.90;;;20.30;;
4353;SDS011;11018;51.258;6.806;2023-12-07T11:11:29;30.73;;;20.70;;
4353;SDS011;11018;51.258;6.806;2023-12-07T11:16:29;27.85;;;20.30;;
4353;SDS011;11018;51.258;6.806;2023-12-07T11:19:02;26.63;;;20.60;;
4353;SDS011;11018;51.258;6.806;2023-12-07T11:21:29;26.33;;;18.45;;
4353;SDS011;11018;51.258;6.806;2023-12-07T11:23:55;28.27;;;19.90;;
4353;SDS011;11018;51.258;6.806;2023-12-07T11:26:24;25.80;;;19.35;;
4353;SDS011;11018;51.258;6.806;2023-12-07T11:28:50;26.70;;;19.02;;
4353;SDS011;11018;51.258;6.806;2023-12-07T11:31:16;26.98;;;19.30;;
4353;SDS011;11018;51.258;6.806;2023-12-07T11:33:42;31.75;;;18.98;;
4353;SDS011;11018;51.258;6.806;2023-12-07T11:36:08;25.52;;;19.05;;
4353;SDS011;11018;51.258;6.806;2023-12-07T11:38:38;28.77;;;19.75;;
4353;SDS011;11018;51.258;6.806;2023-12-07T11:41:23;24.73;;;18.70;;
4353;SDS011;11018;51.258;6.806;2023-12-07T11:43:49;27.20;;;17.30;;
4353;SDS011;11018;51.258;6.806;2023-12-07T11:46:18;23.17;;;17.25;;
4353;SDS011;11018;51.258;6.806;2023-12-07T11:48:48;23.52;;;17.52;;
4353;SDS011;11018;51.258;6.806;2023-12-07T11:51:15;23.90;;;17.52;;
4353;SDS011;11018;51.258;6.806;2023-12-07T11:53:41;24.92;;;17.88;;
4353;SDS011;11018;51.258;6.806;2023-12-07T11:56:08;26.55;;;18.27;;
4353;SDS011;11018;51.258;6.806;2023-12-07T11:58:35;25.05;;;17.98;;
4353;SDS011;11018;51.258;6.806;2023-12-07T12:01:02;26.75;;;18.80;;
4353;SDS011;11018;51.258;6.806;2023-12-07T12:03:29;23.60;;;18.00;;
4353;SDS011;11018;51.258;6.806;2023-12-07T12:05:59;22.92;;;16.25;;
4353;SDS011;11018;51.258;6.806;2023-12-07T12:08:26;27.35;;;17.67;;
4353;SDS011;11018;51.258;6.806;2023-12-07T12:10:53;25.27;;;17.20;;
4353;SDS011;11018;51.258;6.806;2023-12-07T12:13:25;34.47;;;20.55;;
4353;SDS011;11018;51.258;6.806;2023-12-07T12:15:58;26.70;;;17.90;;
4353;SDS011;11018;51.258;6.806;2023-12-07T12:18:25;40.10;;;21.85;;
4353;SDS011;11018;51.258;6.806;2023-12-07T12:20:51;29.30;;;19.17;;
4353;SDS011;11018;51.258;6.806;2023-12-07T12:23:18;26.95;;;17.00;;
4353;SDS011;11018;51.258;6.806;2023-12-07T12:25:44;25.27;;;17.65;;
4353;SDS011;11018;51.258;6.806;2023-12-07T12:28:10;26.02;;;16.88;;
4353;SDS011;11018;51.258;6.806;2023-12-07T12:30:39;24.02;;;15.52;;
4353;SDS011;11018;51.258;6.806;2023-12-07T12:33:04;26.87;;;16.27;;
4353;SDS011;11018;51.258;6.806;2023-12-07T12:35:30;23.05;;;16.00;;
4353;SDS011;11018;51.258;6.806;2023-12-07T12:37:57;22.63;;;16.25;;
4353;SDS011;11018;51.258;6.806;2023-12-07T12:40:22;25.87;;;16.10;;
4353;SDS011;11018;51.258;6.806;2023-12-07T12:42:49;23.47;;;15.40;;
4353;SDS011;11018;51.258;6.806;2023-12-07T12:45:16;23.75;;;15.68;;
4353;SDS011;11018;51.258;6.806;2023-12-07T12:47:45;22.38;;;15.70;;
4353;SDS011;11018;51.258;6.806;2023-12-07T12:50:13;22.95;;;15.88;;
4353;SDS011;11018;51.258;6.806;2023-12-07T12:53:05;23.73;;;16.05;;
4353;SDS011;11018;51.258;6.806;2023-12-07T12:55:35;23.58;;;15.18;;
4353;SDS011;11018;51.258;6.806;2023-12-07T12:58:02;26.33;;;15.77;;
4353;SDS011;11018;51.258;6.806;2023-12-07T13:00:29;21.45;;;15.38;;
4353;SDS011;11018;51.258;6.806;2023-12-07T13:02:57;25.50;;;17.00;;
4353;SDS011;11018;51.258;6.806;2023-12-07T13:05:24;24.17;;;15.73;;
4353;SDS011;11018;51.258;6.806;2023-12-07T13:07:50;20.95;;;14.82;;
4353;SDS011;11018;51.258;6.806;2023-12-07T13:10:16;24.42;;;15.68;;
4353;SDS011;11018;51.258;6.806;2023-12-07T13:12:42;21.52;;;14.77;;
4353;SDS011;11018;51.258;6.806;2023-12-07T13:15:08;25.30;;;15.83;;
4353;SDS011;11018;51.258;6.806;2023-12-07T13:17:34;22.80;;;15.60;;
4353;SDS011;11018;51.258;6.806;2023-12-07T13:20:00;22.40;;;14.70;;
4353;SDS011;11018;51.258;6.806;2023-12-07T13:22:26;25.63;;;16.00;;
4353;SDS011;11018;51.258;6.806;2023-12-07T13:24:51;22.63;;;15.38;;
4353;SDS011;11018;51.258;6.806;2023-12-07T13:27:17;27.55;;;14.88;;
4353;SDS011;11018;51.258;6.806;2023-12-07T13:29:43;20.67;;;15.53;;
4353;SDS011;11018;51.258;6.806;2023-12-07T13:32:09;20.50;;;14.37;;
4353;SDS011;11018;51.258;6.806;2023-12-07T13:34:35;20.52;;;14.57;;
4353;SDS011;11018;51.258;6.806;2023-12-07T13:37:00;22.73;;;15.57;;
4353;SDS011;11018;51.258;6.806;2023-12-07T13:39:26;23.57;;;14.17;;
4353;SDS011;11018;51.258;6.806;2023-12-07T13:41:52;22.45;;;14.43;;
4353;SDS011;11018;51.258;6.806;2023-12-07T13:44:19;21.15;;;13.88;;
4353;SDS011;11018;51.258;6.806;2023-12-07T13:46:45;23.67;;;14.47;;
4353;SDS011;11018;51.258;6.806;2023-12-07T13:49:11;21.33;;;13.70;;
4353;SDS011;11018;51.258;6.806;2023-12-07T13:51:39;17.80;;;12.10;;
4353;SDS011;11018;51.258;6.806;2023-12-07T13:54:04;24.90;;;13.82;;
4353;SDS011;11018;51.258;6.806;2023-12-07T13:56:30;24.03;;;14.20;;
4353;SDS011;11018;51.258;6.806;2023-12-07T13:58:55;19.40;;;13.00;;
4353;SDS011;11018;51.258;6.806;2023-12-07T14:01:21;20.98;;;13.50;;
4353;SDS011;11018;51.258;6.806;2023-12-07T14:03:47;21.27;;;12.90;;
4353;SDS011;11018;51.258;6.806;2023-12-07T14:06:21;22.05;;;12.82;;
4353;SDS011;11018;51.258;6.806;2023-12-07T14:08:49;21.47;;;13.07;;
4353;SDS011;11018;51.258;6.806;2023-12-07T14:11:16;26.67;;;12.63;;
4353;SDS011;11018;51.258;6.806;2023-12-07T14:13:44;20.73;;;12.15;;
4353;SDS011;11018;51.258;6.806;2023-12-07T14:16:14;20.10;;;12.88;;
4353;SDS011;11018;51.258;6.806;2023-12-07T14:18:39;20.05;;;12.70;;
4353;SDS011;11018;51.258;6.806;2023-12-07T14:21:05;22.53;;;12.80;;
4353;SDS011;11018;51.258;6.806;2023-12-07T14:23:31;21.13;;;12.70;;
4353;SDS011;11018;51.258;6.806;2023-12-07T14:25:56;24.87;;;13.23;;
4353;SDS011;11018;51.258;6.806;2023-12-07T14:28:26;20.17;;;13.10;;
4353;SDS011;11018;51.258;6.806;2023-12-07T14:30:55;20.27;;;12.25;;
4353;SDS011;11018;51.258;6.806;2023-12-07T14:33:22;19.35;;;12.80;;
4353;SDS011;11018;51.258;6.806;2023-12-07T14:35:47;21.38;;;13.27;;
4353;SDS011;11018;51.258;6.806;2023-12-07T14:38:13;21.50;;;13.02;;